Time;durP1;ratioP1;P1;durP2;ratioP2;P2;SDS_P1;SDS_P2;PMS_P1;PMS_P2;Temp;Humidity;BMP_temperature;BMP_pressure;BME280_temperature;BME280_humidity;BME280_pressure;Samples;Min_cycle;Max_cycle;Signal;HPM_P1;HPM_P2
2023/10/08 00:00:49;;;;;;;11.77;7.20;;;;;;;12.56;61.61;95282.28;5052165;28;20171;-70
2023/10/08 00:03:17;;;;;;;16.87;7.50;;;;;;;12.50;62.04;95283.16;5052510;28;20201;-70
2023/10/08 00:05:43;;;;;;;13.47;6.23;;;;;;;12.47;62.07;95279.09;5052431;28;20182;-70
2023/10/08 00:08:09;;;;;;;16.10;6.93;;;;;;;12.46;62.31;95277.47;5052792;28;20183;-70
2023/10/08 00:10:44;;;;;;;12.77;7.00;;;;;;;12.43;62.45;95273.44;5052833;28;20959;-69
2023/10/08 00:13:16;;;;;;;13.53;6.53;;;;;;;12.35;62.54;95255.22;5052465;28;20317;-70
2023/10/08 00:15:55;;;;;;;16.43;6.67;;;;;;;12.45;62.05;95270.59;5052732;28;20179;-70
2023/10/08 00:18:22;;;;;;;13.27;6.73;;;;;;;12.43;62.28;95262.06;5052783;28;20171;-69
2023/10/08 00:23:35;;;;;;;11.63;6.10;;;;;;;12.44;62.20;95256.59;5052883;28;20182;-70
2023/10/08 00:26:06;;;;;;;12.93;6.20;;;;;;;12.47;62.31;95257.97;5052705;28;20559;-70
2023/10/08 00:28:32;;;;;;;12.10;6.97;;;;;;;12.32;62.54;95231.88;5052613;28;20254;-70
2023/10/08 00:31:05;;;;;;;12.07;6.80;;;;;;;12.35;63.09;95239.38;5052208;28;20263;-70
2023/10/08 00:33:30;;;;;;;17.97;6.87;;;;;;;12.38;62.88;95251.31;5034759;28;20171;-70
2023/10/08 00:35:56;;;;;;;14.67;6.20;;;;;;;12.37;62.78;95255.78;5052421;28;20253;-70
2023/10/08 00:38:21;;;;;;;10.33;5.27;;;;;;;12.40;62.76;95246.63;5052194;28;20249;-70
2023/10/08 00:40:50;;;;;;;11.03;5.27;;;;;;;12.43;62.38;95252.31;5052093;28;20197;-70
2023/10/08 00:43:36;;;;;;;9.67;5.23;;;;;;;12.26;62.09;95227.44;5052245;28;20175;-70
2023/10/08 00:46:17;;;;;;;7.77;3.73;;;;;;;12.56;61.54;95253.25;5052353;28;20182;-70
2023/10/08 00:48:44;;;;;;;6.13;3.30;;;;;;;12.58;61.14;95240.66;5051995;28;20248;-70
2023/10/08 00:51:45;;;;;;;6.60;3.77;;;;;;;12.69;60.73;95248.69;5052173;28;20171;-70
2023/10/08 00:54:06;;;;;;;10.70;4.53;;;;;;;12.75;61.00;95247.03;5048776;28;20195;-70
2023/10/08 00:59:21;;;;;;;7.93;3.40;;;;;;;12.76;60.53;95241.53;5052361;28;20190;-69
2023/10/08 01:02:05;;;;;;;8.57;4.20;;;;;;;12.74;60.78;95240.13;5051796;28;20175;-69
2023/10/08 01:04:34;;;;;;;7.20;3.43;;;;;;;12.74;60.56;95240.13;5051993;28;20190;-69
2023/10/08 01:07:10;;;;;;;6.77;3.70;;;;;;;12.69;60.84;95227.56;5051090;28;20175;-69
2023/10/08 01:09:37;;;;;;;8.37;4.30;;;;;;;12.64;60.78;95239.78;5051623;28;20182;-69
2023/10/08 01:14:50;;;;;;;11.80;4.67;;;;;;;12.54;61.11;95234.97;5051776;28;20573;-70
2023/10/08 01:17:18;;;;;;;7.50;3.73;;;;;;;12.48;61.40;95236.63;5051880;28;20183;-71
2023/10/08 01:19:45;;;;;;;4.83;3.03;;;;;;;12.32;60.80;95229.22;5043029;28;20210;-71
2023/10/08 01:22:18;;;;;;;7.47;3.80;;;;;;;12.41;60.53;95235.06;5050698;28;20422;-69
2023/10/08 01:24:48;;;;;;;15.43;4.03;;;;;;;12.29;60.65;95234.09;5051399;28;20483;-69
2023/10/08 01:27:21;;;;;;;9.93;3.23;;;;;;;12.32;61.16;95231.06;5052011;28;20186;-70
2023/10/08 01:29:47;;;;;;;7.80;3.63;;;;;;;12.29;61.09;95237.56;5051402;28;20186;-69
2023/10/08 01:32:16;;;;;;;7.43;3.60;;;;;;;12.24;61.36;95233.94;5051238;28;20207;-70
2023/10/08 01:34:45;;;;;;;7.43;3.63;;;;;;;12.23;61.27;95241.06;5051454;28;20183;-70
2023/10/08 01:37:12;;;;;;;8.75;4.10;;;;;;;12.28;61.15;95237.78;5050071;28;20491;-69
2023/10/08 01:39:42;;;;;;;9.40;3.63;;;;;;;12.21;61.50;95245.72;5050995;28;20222;-69
2023/10/08 01:42:17;;;;;;;5.70;2.93;;;;;;;12.17;61.31;95243.72;5051175;28;20266;-69
2023/10/08 01:44:48;;;;;;;9.00;3.43;;;;;;;12.16;61.53;95240.28;5051294;28;20220;-69
2023/10/08 01:47:17;;;;;;;8.30;4.47;;;;;;;12.12;61.83;95244.34;5051254;28;20209;-69
2023/10/08 01:49:46;;;;;;;6.27;3.40;;;;;;;12.05;62.17;95236.47;5033057;28;20616;-69
2023/10/08 01:52:21;;;;;;;5.57;3.47;;;;;;;11.88;62.25;95224.78;5051151;28;20199;-69
2023/10/08 01:54:48;;;;;;;6.63;3.40;;;;;;;11.89;62.58;95236.94;5051018;28;20714;-69
2023/10/08 01:57:14;;;;;;;7.47;3.37;;;;;;;11.87;62.72;95241.63;5051010;28;20228;-69
2023/10/08 01:59:40;;;;;;;7.03;3.53;;;;;;;11.85;62.90;95245.50;5033331;28;20601;-69
2023/10/08 02:02:06;;;;;;;6.07;3.50;;;;;;;11.80;63.37;95240.03;5050904;28;20197;-69
2023/10/08 02:04:35;;;;;;;7.43;4.17;;;;;;;11.71;63.99;95237.59;5050610;28;20178;-69
2023/10/08 02:07:01;;;;;;;6.93;4.27;;;;;;;11.68;63.97;95234.53;5050682;28;20171;-69
2023/10/08 02:09:26;;;;;;;7.03;3.67;;;;;;;11.62;65.08;95235.38;5050835;28;20269;-69
2023/10/08 02:11:56;;;;;;;12.43;4.40;;;;;;;11.57;64.79;95230.75;5050260;28;20287;-69
2023/10/08 02:14:22;;;;;;;14.50;4.57;;;;;;;11.56;65.24;95228.31;5050707;28;20183;-69
2023/10/08 02:16:49;;;;;;;12.02;4.38;;;;;;;11.47;65.42;95222.47;5048575;28;20423;-69
2023/10/08 02:19:18;;;;;;;8.30;4.07;;;;;;;11.40;65.83;95226.13;5050081;28;20334;-68
2023/10/08 02:21:46;;;;;;;13.17;4.40;;;;;;;11.37;66.05;95229.97;5050391;28;20182;-69
2023/10/08 02:24:12;;;;;;;10.00;4.27;;;;;;;11.38;65.97;95225.53;5050451;28;20186;-69
2023/10/08 02:26:38;;;;;;;11.40;4.17;;;;;;;11.32;66.40;95221.88;5050395;28;20197;-68
2023/10/08 02:29:10;;;;;;;23.63;4.80;;;;;;;11.32;66.48;95227.16;5050461;28;20560;-68
2023/10/08 02:31:37;;;;;;;12.77;5.53;;;;;;;11.28;66.72;95224.13;5050124;28;20214;-68
2023/10/08 02:34:04;;;;;;;11.07;4.17;;;;;;;11.23;67.00;95220.50;5050201;28;20174;-69
2023/10/08 02:36:30;;;;;;;8.57;4.03;;;;;;;11.18;67.36;95220.28;5050141;28;20182;-69
2023/10/08 02:38:56;;;;;;;11.43;4.43;;;;;;;11.11;67.10;95222.13;5050064;28;20210;-69
2023/10/08 02:41:24;;;;;;;10.83;5.40;;;;;;;11.10;67.50;95215.22;5050130;28;20174;-69
2023/10/08 02:43:49;;;;;;;10.93;4.67;;;;;;;11.06;67.58;95220.09;5050160;28;20213;-68
2023/10/08 02:46:15;;;;;;;13.77;3.70;;;;;;;11.09;67.39;95229.41;5050002;28;20632;-70
2023/10/08 02:48:46;;;;;;;11.37;6.47;;;;;;;11.02;67.93;95224.16;5049938;28;20313;-69
2023/10/08 02:51:14;;;;;;;12.87;5.83;;;;;;;10.98;68.23;95227.41;5049790;28;20266;-69
2023/10/08 02:53:43;;;;;;;14.33;5.50;;;;;;;10.92;68.64;95224.56;5049854;28;20544;-71
2023/10/08 02:56:13;;;;;;;14.77;5.37;;;;;;;10.93;68.41;95233.28;5050087;28;20190;-70
2023/10/08 02:58:43;;;;;;;13.63;5.82;;;;;;;10.91;68.71;95230.84;5048942;28;20422;-71
2023/10/08 03:01:12;;;;;;;9.60;4.70;;;;;;;10.93;68.80;95242.00;5049995;28;20179;-70
2023/10/08 03:03:46;;;;;;;9.00;4.73;;;;;;;10.92;68.69;95236.91;5049663;28;20202;-69
2023/10/08 03:06:14;;;;;;;13.13;5.27;;;;;;;10.92;68.58;95229.00;5044964;28;20232;-69
2023/10/08 03:08:43;;;;;;;8.50;4.47;;;;;;;10.86;68.86;95229.84;5049714;28;20237;-70
2023/10/08 03:11:19;;;;;;;9.13;4.37;;;;;;;10.81;69.20;95222.53;5049372;28;20256;-70
2023/10/08 03:13:51;;;;;;;14.17;5.33;;;;;;;10.81;69.23;95227.78;5049232;28;20916;-70
2023/10/08 03:16:21;;;;;;;9.88;4.80;;;;;;;10.77;69.69;95226.59;5031193;28;20430;-70
2023/10/08 03:18:50;;;;;;;6.97;4.23;;;;;;;10.84;68.99;95222.13;5049401;28;20214;-70
2023/10/08 03:21:33;;;;;;;20.73;5.33;;;;;;;10.87;69.30;95223.56;5049378;28;20186;-70
2023/10/08 03:23:58;;;;;;;13.97;4.40;;;;;;;10.85;68.66;95222.94;5049360;28;20186;-70
2023/10/08 03:26:37;;;;;;;8.17;4.50;;;;;;;10.73;69.17;95206.94;5049993;28;20641;-70
2023/10/08 03:29:07;;;;;;;12.10;5.10;;;;;;;10.79;69.39;95221.13;5049330;28;20175;-70
2023/10/08 03:34:18;;;;;;;8.50;4.10;;;;;;;10.89;68.38;95222.34;5049337;28;20256;-69
2023/10/08 03:36:47;;;;;;;7.43;3.97;;;;;;;10.91;68.63;95222.13;5049460;28;20186;-69
2023/10/08 03:39:20;;;;;;;7.43;4.03;;;;;;;10.90;68.74;95208.16;5049059;28;20704;-69
2023/10/08 03:41:58;;;;;;;9.37;3.93;;;;;;;10.84;68.88;95210.78;5049126;28;20725;-69
2023/10/08 03:44:24;;;;;;;8.83;4.47;;;;;;;10.77;69.12;95202.91;5049323;28;20628;-69
2023/10/08 03:46:52;;;;;;;8.40;4.40;;;;;;;10.75;69.15;95197.00;5049165;28;20253;-70
2023/10/08 03:51:46;;;;;;;9.23;5.00;;;;;;;10.61;69.68;95197.22;5049108;28;20226;-69
2023/10/08 03:56:45;;;;;;;9.87;6.00;;;;;;;10.53;70.23;95198.25;5048838;28;20248;-69
2023/10/08 03:59:33;;;;;;;9.53;5.00;;;;;;;10.48;70.30;95196.19;5048908;28;20182;-69
2023/10/08 04:05:19;;;;;;;12.73;5.27;;;;;;;10.45;70.62;95190.53;5048884;28;20264;-70
2023/10/08 04:12:43;;;;;;;8.20;5.17;;;;;;;10.30;71.14;95188.06;5048368;28;20206;-69
2023/10/08 04:15:12;;;;;;;17.83;6.37;;;;;;;10.26;71.51;95188.69;5048789;28;20190;-69
2023/10/08 04:17:43;;;;;;;11.70;5.87;;;;;;;10.20;71.60;95192.94;5031002;28;20171;-71
2023/10/08 04:20:33;;;;;;;16.73;5.97;;;;;;;10.19;71.80;95199.22;5049094;28;20249;-70
2023/10/08 04:23:00;;;;;;;12.67;6.07;;;;;;;10.22;72.03;95198.78;5049063;28;20646;-72
2023/10/08 04:25:30;;;;;;;12.80;6.10;;;;;;;10.05;72.00;95171.22;5048942;28;20689;-72
2023/10/08 04:27:59;;;;;;;12.90;6.43;;;;;;;10.23;71.92;95186.44;5048409;28;20240;-71
2023/10/08 04:30:47;;;;;;;13.37;5.60;;;;;;;10.20;72.10;95191.09;5048039;28;20179;-71
2023/10/08 04:33:13;;;;;;;13.03;6.27;;;;;;;10.21;72.20;95189.28;5048494;28;20206;-71
2023/10/08 04:35:48;;;;;;;16.73;5.77;;;;;;;10.21;71.81;95194.53;5048373;28;20175;-71
2023/10/08 04:38:17;;;;;;;17.70;6.80;;;;;;;10.16;72.28;95186.41;5048171;28;20720;-70
2023/10/08 04:40:48;;;;;;;22.43;9.00;;;;;;;10.12;72.81;95178.09;5046218;28;20175;-71
2023/10/08 04:43:30;;;;;;;37.20;7.97;;;;;;;10.28;72.77;95184.88;5052137;28;20317;-70
2023/10/08 04:45:59;;;;;;;24.27;7.63;;;;;;;10.28;72.47;95190.13;5052146;28;20171;-70
2023/10/08 04:48:29;;;;;;;19.03;8.13;;;;;;;10.32;72.44;95201.84;5051881;28;20191;-71
2023/10/08 04:50:58;;;;;;;18.83;7.10;;;;;;;10.23;72.77;95181.19;5051542;28;20194;-71
2023/10/08 04:53:31;;;;;;;17.53;8.70;;;;;;;10.21;72.60;95174.31;5052159;28;20986;-71
2023/10/08 04:56:13;;;;;;;12.80;6.17;;;;;;;10.37;72.81;95196.81;5052150;28;20183;-71
2023/10/08 04:58:41;;;;;;;10.37;5.27;;;;;;;10.45;72.34;95196.63;5052442;28;20207;-71
2023/10/08 05:01:17;;;;;;;20.17;5.23;;;;;;;10.61;71.65;95202.50;5050075;28;20187;-71
2023/10/08 05:14:27;;;;;;;9.73;5.50;;;;;;;11.97;65.29;95189.22;5051879;28;20210;-70
2023/10/08 05:17:11;;;;;;;10.97;4.87;;;;;;;12.16;64.99;95195.41;5051353;28;20182;-70
2023/10/08 05:22:43;;;;;;;16.87;6.27;;;;;;;12.87;64.62;95213.63;5051496;28;20167;-70
2023/10/08 05:30:16;;;;;;;12.13;5.38;;;;;;;16.18;53.74;95219.25;5051296;28;20244;-70
2023/10/08 05:38:48;;;;;;;13.73;5.57;;;;;;;21.48;41.11;95228.34;5050266;28;20227;-72
2023/10/08 06:13:06;;;;;;;9.10;5.10;;;;;;;32.73;20.74;95233.41;5050546;28;20681;-72
2023/10/08 06:18:18;;;;;;;11.55;5.35;;;;;;;33.98;19.56;95230.44;5050688;28;20181;-71
2023/10/08 06:20:47;;;;;;;11.45;6.22;;;;;;;34.50;18.95;95236.84;5050749;28;20179;-71
2023/10/08 06:23:22;;;;;;;16.55;5.82;;;;;;;34.87;18.37;95220.91;5050635;28;20233;-70
2023/10/08 06:25:54;;;;;;;16.63;6.15;;;;;;;34.79;18.50;95222.69;5050568;28;20186;-71
2023/10/08 06:28:20;;;;;;;18.45;6.05;;;;;;;35.23;18.36;95219.75;5049855;28;20216;-71
2023/10/08 06:30:46;;;;;;;10.60;6.05;;;;;;;35.79;17.36;95222.91;5049501;28;20570;-72
2023/10/08 06:33:13;;;;;;;10.27;4.82;;;;;;;36.27;17.29;95233.22;5050181;28;20199;-71
2023/10/08 06:35:44;;;;;;;8.02;5.60;;;;;;;35.44;17.59;95221.03;5050075;28;20182;-71
2023/10/08 06:38:10;;;;;;;8.55;4.60;;;;;;;35.75;17.32;95228.31;5049656;28;20308;-72
2023/10/08 06:45:46;;;;;;;12.65;6.75;;;;;;;36.12;17.02;95228.63;5050180;28;20182;-72
2023/10/08 06:48:20;;;;;;;10.80;5.65;;;;;;;36.14;16.64;95220.81;5050212;28;20621;-73
2023/10/08 06:50:49;;;;;;;9.60;4.93;;;;;;;34.68;17.56;95208.75;5049717;28;20241;-73
2023/10/08 06:53:18;;;;;;;7.45;4.55;;;;;;;34.61;17.94;95216.00;5049831;28;20206;-72
2023/10/08 06:55:48;;;;;;;9.13;4.88;;;;;;;34.05;18.64;95216.16;5049899;28;20202;-72
2023/10/08 06:58:14;;;;;;;14.18;4.85;;;;;;;33.57;19.36;95219.91;5049905;28;20710;-72
2023/10/08 07:00:46;;;;;;;11.32;4.28;;;;;;;32.95;19.98;95210.31;5048165;28;20225;-72
2023/10/08 07:03:15;;;;;;;15.10;5.50;;;;;;;32.35;20.57;95206.44;5048985;28;20167;-69
2023/10/08 07:05:44;;;;;;;10.98;5.05;;;;;;;31.71;21.62;95201.56;5041265;28;20190;-71
2023/10/08 07:08:13;;;;;;;12.82;5.03;;;;;;;30.84;22.36;95192.50;5042460;28;20646;-72
2023/10/08 07:10:40;;;;;;;9.07;4.85;;;;;;;30.07;23.71;95191.00;5041169;28;20167;-74
2023/10/08 07:13:07;;;;;;;13.30;4.90;;;;;;;29.94;24.02;95200.94;5042550;28;20689;-71
2023/10/08 07:15:40;;;;;;;10.98;4.88;;;;;;;29.87;24.29;95191.66;5045911;28;20290;-70
2023/10/08 07:18:19;;;;;;;16.02;4.65;;;;;;;29.51;24.13;95189.34;5039222;28;20168;-71
2023/10/08 07:20:45;;;;;;;10.25;4.50;;;;;;;29.40;24.39;95193.56;5039111;28;20951;-70
2023/10/08 07:23:24;;;;;;;11.43;4.65;;;;;;;29.19;25.74;95188.75;5037314;28;20948;-70
2023/10/08 07:26:10;;;;;;;10.43;4.90;;;;;;;28.65;25.78;95187.41;5049754;28;20626;-71
2023/10/08 07:28:39;;;;;;;8.32;4.45;;;;;;;28.36;26.34;95179.06;5048598;28;20191;-70
2023/10/08 07:31:05;;;;;;;15.48;4.05;;;;;;;28.22;24.25;95181.09;5040129;28;20187;-70
2023/10/08 07:33:36;;;;;;;8.00;4.95;;;;;;;28.19;26.38;95176.31;5048861;28;20207;-71
2023/10/08 07:36:11;;;;;;;6.45;4.50;;;;;;;28.12;26.50;95168.59;5048919;28;20612;-71
2023/10/08 07:38:44;;;;;;;7.95;3.60;;;;;;;28.11;25.04;95172.41;5047971;28;20226;-71
2023/10/08 07:41:12;;;;;;;8.10;3.38;;;;;;;28.00;25.29;95154.88;5042214;28;20179;-71
2023/10/08 07:43:39;;;;;;;5.90;3.00;;;;;;;28.21;23.96;95161.34;5037814;28;20162;-70
2023/10/08 07:46:05;;;;;;;11.07;3.58;;;;;;;28.34;22.57;95149.59;5042978;28;20183;-71
2023/10/08 07:48:31;;;;;;;4.75;2.80;;;;;;;28.49;23.09;95148.34;5041328;28;20178;-71
2023/10/08 07:50:56;;;;;;;25.75;3.80;;;;;;;28.31;22.41;95152.13;5036693;28;20555;-70
2023/10/08 07:53:25;;;;;;;11.30;3.97;;;;;;;28.32;22.95;95157.22;5037523;28;20689;-70
2023/10/08 07:55:51;;;;;;;7.35;2.97;;;;;;;28.30;22.59;95150.53;5040286;28;20175;-70
2023/10/08 07:58:18;;;;;;;5.13;3.40;;;;;;;28.21;23.27;95150.50;5040740;28;20245;-69
2023/10/08 08:00:53;;;;;;;8.45;3.20;;;;;;;28.34;23.14;95151.50;5039857;28;20255;-71
2023/10/08 08:03:20;;;;;;;9.18;3.20;;;;;;;28.39;22.56;95132.38;5039721;28;20254;-69
2023/10/08 08:05:48;;;;;;;14.82;3.95;;;;;;;28.60;22.16;95146.91;5039847;28;20226;-70
2023/10/08 08:08:17;;;;;;;7.30;3.28;;;;;;;28.62;22.62;95149.31;5038841;28;20207;-70
2023/10/08 08:10:44;;;;;;;6.50;3.35;;;;;;;28.75;22.57;95141.03;5040379;28;20179;-70
2023/10/08 08:13:09;;;;;;;4.53;2.53;;;;;;;28.78;22.04;95134.22;5040413;28;20210;-70
2023/10/08 08:15:40;;;;;;;6.53;2.63;;;;;;;28.75;21.87;95130.19;5046406;28;20182;-70
2023/10/08 08:18:07;;;;;;;8.07;3.50;;;;;;;28.35;22.63;95132.22;5039926;28;20238;-70
2023/10/08 08:20:38;;;;;;;7.63;3.05;;;;;;;27.76;22.66;95134.38;5043540;28;20255;-70
2023/10/08 08:23:08;;;;;;;4.88;2.97;;;;;;;27.57;23.27;95119.53;5050688;28;20646;-68
2023/10/08 08:26:06;;;;;;;9.93;2.92;;;;;;;27.71;22.48;95133.75;5051910;28;20238;-68
2023/10/08 08:28:31;;;;;;;5.88;3.55;;;;;;;27.52;23.61;95127.72;5050318;28;20171;-68
2023/10/08 08:31:04;;;;;;;8.23;3.10;;;;;;;27.71;23.60;95126.41;5051861;28;20703;-68
2023/10/08 08:33:52;;;;;;;8.13;3.05;;;;;;;28.00;23.16;95109.66;5050907;28;20206;-68
2023/10/08 08:36:16;;;;;;;7.55;3.40;;;;;;;28.02;23.12;95120.94;5051127;28;20187;-67
2023/10/08 08:38:42;;;;;;;18.00;4.43;;;;;;;27.89;22.40;95111.03;5051067;28;20231;-67
2023/10/08 08:41:07;;;;;;;26.75;4.82;;;;;;;27.62;23.27;95124.78;5051106;28;20189;-67
2023/10/08 08:43:36;;;;;;;11.20;3.50;;;;;;;27.68;23.47;95112.72;5052538;28;20237;-67
2023/10/08 08:46:06;;;;;;;17.25;4.78;;;;;;;27.63;23.62;95105.53;5052374;28;20597;-68
2023/10/08 08:48:33;;;;;;;8.65;3.65;;;;;;;28.23;23.49;95117.69;5051738;28;20167;-67
2023/10/08 08:51:00;;;;;;;12.73;4.18;;;;;;;28.59;23.20;95109.28;5051981;28;20179;-68
2023/10/08 08:53:26;;;;;;;8.00;3.15;;;;;;;28.83;22.32;95109.63;5051240;28;20195;-67
2023/10/08 08:55:54;;;;;;;9.50;3.80;;;;;;;28.73;22.03;95108.00;5052004;28;20186;-68
2023/10/08 08:58:22;;;;;;;6.28;3.05;;;;;;;28.57;22.53;95106.09;5052085;28;20226;-68
2023/10/08 09:00:47;;;;;;;5.70;3.33;;;;;;;28.23;23.29;95094.13;5052121;28;20557;-68
2023/10/08 09:03:13;;;;;;;13.45;3.58;;;;;;;28.18;23.65;95101.59;5051906;28;20262;-68
2023/10/08 09:05:40;;;;;;;12.48;3.50;;;;;;;28.03;23.13;95100.88;5051381;28;20179;-68
2023/10/08 09:08:06;;;;;;;6.25;3.50;;;;;;;27.96;23.38;95111.38;5051636;28;20245;-68
2023/10/08 09:10:37;;;;;;;12.43;3.95;;;;;;;27.99;23.61;95108.06;5051466;28;20181;-68
2023/10/08 09:13:05;;;;;;;6.82;3.40;;;;;;;27.72;23.59;95102.88;5050999;28;20201;-68
2023/10/08 09:15:32;;;;;;;8.93;3.53;;;;;;;27.52;23.93;95103.38;5051211;28;20164;-68
2023/10/08 09:18:00;;;;;;;9.80;3.15;;;;;;;27.56;23.93;95094.38;5051598;28;20525;-68
2023/10/08 09:20:27;;;;;;;6.53;3.17;;;;;;;27.70;23.87;95083.44;5051430;28;20237;-68
2023/10/08 09:23:13;;;;;;;14.07;3.58;;;;;;;27.63;24.55;95097.41;5050887;28;20960;-68
2023/10/08 09:25:44;;;;;;;21.70;4.68;;;;;;;27.52;23.36;95092.56;5050032;28;20253;-69
2023/10/08 09:28:12;;;;;;;19.13;4.40;;;;;;;27.32;24.03;95083.91;5049968;28;20229;-68
2023/10/08 09:30:39;;;;;;;7.47;3.33;;;;;;;27.36;25.01;95084.84;5050279;28;20187;-68
2023/10/08 09:33:12;;;;;;;13.05;3.50;;;;;;;26.99;24.51;95071.75;5050641;28;20191;-68
2023/10/08 09:35:38;;;;;;;15.45;3.67;;;;;;;27.03;25.48;95081.66;5050580;28;20205;-69
2023/10/08 09:38:05;;;;;;;5.40;2.97;;;;;;;26.98;25.00;95086.41;5050756;28;20222;-69
2023/10/08 09:40:31;;;;;;;11.80;3.20;;;;;;;27.04;25.56;95082.47;5033094;28;20175;-69
2023/10/08 09:42:56;;;;;;;16.63;3.85;;;;;;;27.01;24.48;95077.66;5051044;28;20171;-70
2023/10/08 09:45:22;;;;;;;10.45;3.08;;;;;;;26.92;25.75;95074.09;5032743;28;20202;-70
2023/10/08 09:47:55;;;;;;;7.50;2.55;;;;;;;26.60;24.24;95061.63;5051168;28;20167;-69
2023/10/08 09:50:27;;;;;;;11.18;3.65;;;;;;;26.15;25.16;95071.53;5050772;28;20190;-71
2023/10/08 09:53:06;;;;;;;6.03;3.10;;;;;;;25.86;25.98;95058.38;5049526;28;20191;-69
2023/10/08 09:55:31;;;;;;;7.10;3.60;;;;;;;25.63;26.74;95056.69;5050889;28;20256;-69
2023/10/08 09:57:57;;;;;;;7.40;3.08;;;;;;;25.52;26.39;95061.47;5049211;28;20606;-69
2023/10/08 10:00:30;;;;;;;6.13;3.42;;;;;;;25.42;27.02;95065.19;5050412;28;20254;-69
2023/10/08 10:03:01;;;;;;;19.02;3.83;;;;;;;25.29;27.70;95051.66;5049751;28;20205;-69
2023/10/08 10:05:31;;;;;;;10.68;4.10;;;;;;;25.09;27.55;95060.91;5050329;28;20204;-69
2023/10/08 10:07:58;;;;;;;13.77;4.03;;;;;;;24.89;27.42;95056.69;5050314;28;20202;-69
2023/10/08 10:10:34;;;;;;;8.30;3.53;;;;;;;24.71;28.45;95055.63;5050478;28;20175;-69
2023/10/08 10:13:02;;;;;;;8.05;3.75;;;;;;;24.54;28.37;95041.91;5049887;28;20278;-69
2023/10/08 10:15:31;;;;;;;11.32;3.50;;;;;;;24.60;29.73;95037.22;5050239;28;20646;-69
2023/10/08 10:18:13;;;;;;;4.57;2.72;;;;;;;24.86;27.78;95043.78;5050342;28;20199;-68
2023/10/08 10:20:41;;;;;;;7.10;2.70;;;;;;;24.99;26.66;95034.19;5050244;28;20167;-69
2023/10/08 10:23:42;;;;;;;11.23;2.95;;;;;;;25.19;27.85;95041.88;5050333;28;20170;-69
2023/10/08 10:26:26;;;;;;;9.90;2.30;;;;;;;25.32;27.28;95019.53;5039082;28;20205;-69
2023/10/08 10:29:10;;;;;;;20.83;3.83;;;;;;;25.43;28.23;95020.13;5050010;28;20598;-68
2023/10/08 10:31:40;;;;;;;4.97;2.67;;;;;;;25.53;27.88;95018.03;5042245;28;20271;-68
2023/10/08 10:34:09;;;;;;;10.02;2.78;;;;;;;25.62;27.98;95026.22;5043215;28;20195;-68
2023/10/08 10:36:36;;;;;;;6.22;2.40;;;;;;;25.61;28.21;95018.44;5049265;28;20260;-69
2023/10/08 10:39:15;;;;;;;11.48;2.90;;;;;;;25.54;28.48;95008.03;5042248;28;20219;-69
2023/10/08 10:41:51;;;;;;;7.03;2.70;;;;;;;25.44;29.10;95010.94;5042688;28;20194;-69
2023/10/08 10:44:16;;;;;;;3.95;2.33;;;;;;;25.41;29.21;95014.25;5042690;28;20181;-69
2023/10/08 10:46:43;;;;;;;9.95;2.92;;;;;;;25.32;29.31;95005.25;5041423;28;20170;-69
2023/10/08 10:49:21;;;;;;;4.70;2.90;;;;;;;25.27;29.87;95002.66;5043181;28;20178;-69
2023/10/08 10:51:57;;;;;;;8.02;2.78;;;;;;;25.22;30.08;94994.66;5047305;28;20190;-68
2023/10/08 10:54:23;;;;;;;8.57;3.47;;;;;;;25.26;30.12;95001.03;5046125;28;20575;-69
2023/10/08 10:57:03;;;;;;;16.00;4.50;;;;;;;25.26;29.73;94991.06;5043135;28;20232;-69
2023/10/08 10:59:36;;;;;;;26.60;4.20;;;;;;;25.27;30.05;94991.88;5042893;28;20635;-69
2023/10/08 11:02:20;;;;;;;9.07;3.28;;;;;;;25.28;29.39;94982.69;5044306;28;20220;-69
2023/10/08 11:04:49;;;;;;;11.75;3.20;;;;;;;25.35;30.21;94988.47;5042094;28;20179;-69
2023/10/08 11:07:20;;;;;;;4.50;2.38;;;;;;;25.38;29.38;94991.38;5042615;28;20236;-69
2023/10/08 11:09:55;;;;;;;11.45;2.72;;;;;;;25.45;29.31;94980.19;5048957;28;20182;-68
2023/10/08 11:12:22;;;;;;;14.40;3.40;;;;;;;25.36;28.80;94973.88;5048690;28;20187;-69
2023/10/08 11:14:51;;;;;;;17.48;3.20;;;;;;;25.23;29.88;94977.41;5040340;28;20242;-69
2023/10/08 11:17:22;;;;;;;9.68;2.88;;;;;;;25.03;29.64;94978.59;5045697;28;20171;-68
2023/10/08 11:19:48;;;;;;;12.10;2.88;;;;;;;24.94;30.14;94970.41;5049608;28;20257;-69
2023/10/08 11:22:17;;;;;;;24.52;3.35;;;;;;;24.87;29.92;94964.56;5049566;28;20236;-69
2023/10/08 11:24:53;;;;;;;11.05;2.80;;;;;;;24.86;30.12;94959.47;5049567;28;20179;-69
2023/10/08 11:27:28;;;;;;;20.77;3.38;;;;;;;24.89;30.45;94965.09;5049735;28;20170;-69
2023/10/08 11:29:58;;;;;;;14.73;3.65;;;;;;;24.90;30.69;94957.81;5049570;28;20217;-70
2023/10/08 11:32:27;;;;;;;20.40;3.95;;;;;;;24.94;31.08;94956.13;5049770;28;20893;-69
2023/10/08 11:35:00;;;;;;;10.20;2.92;;;;;;;24.94;30.90;94953.44;5049288;28;20175;-69
2023/10/08 11:37:36;;;;;;;14.38;3.05;;;;;;;24.98;31.48;94957.13;5049209;28;20700;-69
2023/10/08 11:40:17;;;;;;;5.00;2.25;;;;;;;24.99;30.91;94956.84;5049428;28;20232;-69
2023/10/08 11:42:43;;;;;;;14.15;2.83;;;;;;;24.97;31.30;94944.75;5049365;28;20179;-69
2023/10/08 11:45:19;;;;;;;17.33;3.72;;;;;;;24.88;31.01;94958.09;5049499;28;20175;-69
2023/10/08 11:47:45;;;;;;;21.23;3.42;;;;;;;24.85;31.83;94964.06;5049288;28;20185;-69
2023/10/08 11:50:18;;;;;;;10.25;3.38;;;;;;;24.83;31.87;94960.88;5050789;28;20228;-69
2023/10/08 11:52:44;;;;;;;14.68;3.58;;;;;;;24.70;31.50;94951.69;5053214;28;20202;-69
2023/10/08 11:55:10;;;;;;;7.65;2.70;;;;;;;24.56;31.90;94955.47;5053392;28;20236;-70
2023/10/08 11:57:36;;;;;;;17.10;3.53;;;;;;;24.32;32.12;94934.84;5053707;28;20179;-69
2023/10/08 12:00:18;;;;;;;17.27;3.67;;;;;;;24.46;32.35;94961.00;5053543;28;20266;-69
2023/10/08 12:02:47;;;;;;;9.98;2.63;;;;;;;24.23;32.19;94942.00;5052929;28;20708;-69
2023/10/08 12:05:19;;;;;;;12.68;3.05;;;;;;;24.25;32.85;94934.44;5053113;28;20186;-71
2023/10/08 12:07:48;;;;;;;21.65;3.45;;;;;;;24.33;33.40;94939.13;5053210;28;20186;-70
2023/10/08 12:10:16;;;;;;;17.00;3.03;;;;;;;24.56;33.24;94945.47;5052379;28;20191;-69
2023/10/08 12:12:45;;;;;;;13.70;3.22;;;;;;;24.73;32.31;94945.72;5052633;28;20301;-69
2023/10/08 12:15:12;;;;;;;7.22;2.58;;;;;;;24.97;32.83;94942.06;5052403;28;20175;-69
2023/10/08 12:17:39;;;;;;;8.27;2.50;;;;;;;25.18;32.16;94946.75;5052196;28;20631;-69
2023/10/08 12:20:22;;;;;;;8.15;3.33;;;;;;;25.36;31.51;94939.66;5052483;28;20178;-70
2023/10/08 12:22:51;;;;;;;17.60;3.47;;;;;;;25.55;31.33;94945.72;5052795;28;20181;-70
2023/10/08 12:25:20;;;;;;;23.75;3.85;;;;;;;25.67;31.12;94955.22;5052562;28;20245;-72
2023/10/08 12:27:45;;;;;;;14.68;4.55;;;;;;;25.51;30.90;94954.72;5044797;28;20178;-70
2023/10/08 12:30:11;;;;;;;14.85;3.78;;;;;;;25.55;31.41;94953.81;5052922;28;20669;-69
2023/10/08 12:32:40;;;;;;;15.18;3.70;;;;;;;25.48;31.69;94955.31;5052501;28;20199;-70
2023/10/08 12:35:12;;;;;;;8.85;2.75;;;;;;;25.41;31.54;94961.13;5052483;28;20183;-70
2023/10/08 12:37:42;;;;;;;15.93;3.30;;;;;;;25.35;31.52;94965.00;5052196;28;20535;-70
2023/10/08 12:40:22;;;;;;;11.88;2.72;;;;;;;25.30;32.22;94964.31;5052345;28;20167;-71
2023/10/08 12:42:54;;;;;;;9.00;2.85;;;;;;;25.20;31.35;94965.31;5052260;28;21700;-69
2023/10/08 12:45:24;;;;;;;8.32;2.53;;;;;;;25.02;31.95;94950.84;5052205;28;20179;-70
2023/10/08 12:47:51;;;;;;;10.43;2.85;;;;;;;24.88;32.04;94941.94;5052329;28;20258;-71
2023/10/08 12:50:23;;;;;;;10.45;3.03;;;;;;;24.64;32.49;94912.50;5052585;28;20233;-71
2023/10/08 12:52:55;;;;;;;68.07;6.40;;;;;;;24.82;32.98;94946.59;5052480;28;20225;-71
2023/10/08 21:33:49;;;;;;;8.27;2.65;;;;;;;20.96;53.27;95229.38;5050088;28;20580;-72
2023/10/08 21:36:16;;;;;;;11.40;2.72;;;;;;;21.02;53.59;95247.06;5051187;28;20532;-73
2023/10/08 21:38:45;;;;;;;9.63;3.17;;;;;;;20.88;53.90;95252.13;5050647;28;20790;-73
2023/10/08 21:41:11;;;;;;;9.67;3.13;;;;;;;20.72;54.17;95234.44;5050546;28;20411;-72
2023/10/08 21:43:38;;;;;;;9.82;2.85;;;;;;;20.89;54.38;95251.06;5050685;28;20412;-73
2023/10/08 21:46:09;;;;;;;11.23;2.92;;;;;;;20.90;54.05;95249.19;5050379;28;20410;-72
2023/10/08 21:48:35;;;;;;;9.52;2.58;;;;;;;20.78;54.24;95260.13;5050774;28;20407;-71
2023/10/08 21:51:01;;;;;;;8.87;2.70;;;;;;;20.66;55.26;95263.06;5050289;28;20410;-71